Time;durP1;ratioP1;P1;durP2;ratioP2;P2;SDS_P1;SDS_P2;PMS_P1;PMS_P2;Temp;Humidity;BMP_temperature;BMP_pressure;BME280_temperature;BME280_humidity;BME280_pressure;Samples;Min_cycle;Max_cycle;Signal;HPM_P1;HPM_P2
2023/01/15 00:01:34;;;;;;;2.80;1.60;;;13.00;43.60;;;;;;5014312;28;20232;-51
2023/01/15 00:04:04;;;;;;;3.15;1.40;;;13.10;43.90;;;;;;5014146;28;20194;-51
2023/01/15 00:06:33;;;;;;;1.88;1.20;;;13.10;43.90;;;;;;5014295;28;20296;-51
2023/01/15 00:09:00;;;;;;;2.78;1.20;;;13.00;44.80;;;;;;5014297;28;20162;-51
2023/01/15 00:11:26;;;;;;;2.22;1.70;;;13.20;44.00;;;;;;5014506;28;20174;-51
2023/01/15 00:13:51;;;;;;;2.70;1.30;;;13.30;43.90;;;;;;5013952;28;20215;-52
2023/01/15 00:16:22;;;;;;;1.77;0.93;;;13.30;43.80;;;;;;5013856;28;20182;-51
2023/01/15 00:18:53;;;;;;;1.10;0.50;;;13.40;43.80;;;;;;5013970;28;20196;-52
2023/01/15 00:21:20;;;;;;;1.00;0.50;;;13.50;43.80;;;;;;5014007;28;20186;-51
2023/01/15 00:29:16;;;;;;;1.20;0.50;;;13.80;43.40;;;;;;5014146;28;20189;-51
2023/01/15 00:31:49;;;;;;;3.92;0.60;;;13.90;43.20;;;;;;5013847;28;20706;-50
2023/01/15 00:34:15;;;;;;;1.00;0.40;;;13.80;43.40;;;;;;5013842;28;20198;-51
2023/01/15 00:36:41;;;;;;;1.57;0.60;;;14.00;43.20;;;;;;5013731;28;20182;-52
2023/01/15 00:39:06;;;;;;;1.20;0.70;;;14.10;43.10;;;;;;5013669;28;20230;-51
2023/01/15 00:41:32;;;;;;;1.00;0.40;;;14.00;43.00;;;;;;5013586;28;20182;-51
2023/01/15 00:43:58;;;;;;;1.10;0.40;;;14.20;42.40;;;;;;5013448;28;20191;-51
2023/01/15 00:46:24;;;;;;;1.10;0.50;;;14.30;42.40;;;;;;5013246;28;20278;-52
2023/01/15 00:48:50;;;;;;;1.50;0.90;;;14.40;42.30;;;;;;5013594;28;20270;-52
2023/01/15 00:51:15;;;;;;;1.10;0.70;;;14.50;41.80;;;;;;5013443;28;20171;-52
2023/01/15 00:53:41;;;;;;;1.57;0.80;;;14.50;41.50;;;;;;5013380;28;20170;-52
2023/01/15 00:56:07;;;;;;;2.13;1.30;;;14.40;41.40;;;;;;5013121;28;20722;-52
2023/01/15 00:58:33;;;;;;;2.70;1.50;;;14.40;41.60;;;;;;5013614;28;20182;-52
2023/01/15 01:00:59;;;;;;;1.90;1.23;;;14.30;41.70;;;;;;5013271;28;20925;-51
2023/01/15 01:03:26;;;;;;;3.53;1.25;;;14.20;41.60;;;;;;5013128;28;20913;-52
2023/01/15 01:05:52;;;;;;;1.30;0.95;;;14.20;41.80;;;;;;5013061;28;20214;-52
2023/01/15 01:08:18;;;;;;;1.60;1.00;;;14.10;41.90;;;;;;5013199;28;20171;-52
2023/01/15 01:10:44;;;;;;;2.03;1.02;;;14.10;41.80;;;;;;5013029;28;20174;-52
2023/01/15 01:13:10;;;;;;;2.37;0.90;;;14.10;42.10;;;;;;5013360;28;20179;-52
2023/01/15 01:15:37;;;;;;;2.30;1.17;;;14.00;42.40;;;;;;5012610;28;20445;-51
2023/01/15 01:18:04;;;;;;;1.90;1.10;;;14.00;42.40;;;;;;5012984;28;20178;-52
2023/01/15 01:20:30;;;;;;;2.25;1.10;;;14.00;42.40;;;;;;5012903;28;20209;-51
2023/01/15 01:22:56;;;;;;;1.05;0.60;;;14.10;42.60;;;;;;5012926;28;20166;-52
2023/01/15 01:25:22;;;;;;;1.35;0.65;;;14.00;42.60;;;;;;5012488;28;20623;-51
2023/01/15 01:27:48;;;;;;;1.53;0.67;;;14.10;42.80;;;;;;5013061;28;20301;-52
2023/01/15 01:30:14;;;;;;;1.40;0.90;;;14.00;42.90;;;;;;5012888;28;20269;-51
2023/01/15 01:32:43;;;;;;;1.40;0.77;;;14.00;43.10;;;;;;5012742;28;20960;-51
2023/01/15 01:35:09;;;;;;;2.22;0.98;;;14.10;42.80;;;;;;5012763;28;20225;-51
2023/01/15 01:37:35;;;;;;;1.55;0.85;;;14.20;42.70;;;;;;5012682;28;20642;-52
2023/01/15 01:40:01;;;;;;;1.10;0.60;;;14.20;42.30;;;;;;5012599;28;20193;-51
2023/01/15 01:42:27;;;;;;;1.50;0.80;;;14.20;42.70;;;;;;5012903;28;20445;-51
2023/01/15 01:45:16;;;;;;;2.17;1.13;;;14.20;42.80;;;;;;5012561;28;20434;-51
2023/01/15 01:47:42;;;;;;;1.70;0.93;;;14.30;42.40;;;;;;5012616;28;20202;-52
2023/01/15 01:50:11;;;;;;;3.23;1.30;;;14.30;42.10;;;;;;5012534;28;20174;-52
2023/01/15 01:52:52;;;;;;;2.38;1.40;;;14.30;42.20;;;;;;5012928;28;20531;-52
2023/01/15 01:55:20;;;;;;;1.77;1.30;;;14.30;42.10;;;;;;5012532;28;20557;-52
2023/01/15 01:57:47;;;;;;;1.90;1.35;;;14.30;42.20;;;;;;5012697;28;20259;-51
2023/01/15 02:00:14;;;;;;;1.50;1.30;;;14.30;42.20;;;;;;5012695;28;20189;-51
2023/01/15 02:02:43;;;;;;;2.20;1.50;;;14.30;42.20;;;;;;5012244;28;20179;-51
2023/01/15 02:05:11;;;;;;;2.15;1.30;;;14.20;42.30;;;;;;5012286;28;20277;-51
2023/01/15 02:07:37;;;;;;;3.28;2.25;;;14.30;42.30;;;;;;5012494;28;20206;-51
2023/01/15 02:10:03;;;;;;;2.38;1.60;;;14.30;42.60;;;;;;5012420;28;20182;-52
2023/01/15 02:12:36;;;;;;;2.75;2.00;;;14.30;42.50;;;;;;5012216;28;20543;-51
2023/01/15 02:15:20;;;;;;;3.50;2.17;;;14.20;42.60;;;;;;5011851;28;20667;-51
2023/01/15 02:18:11;;;;;;;2.72;2.35;;;14.10;42.70;;;;;;5016137;28;20621;-52
2023/01/15 02:20:47;;;;;;;4.05;2.15;;;14.10;42.70;;;;;;5016408;28;20257;-52
2023/01/15 02:24:00;;;;;;;3.30;2.63;;;14.10;42.70;;;;;;5016493;28;20182;-51
2023/01/15 02:26:45;;;;;;;2.70;2.33;;;14.10;42.50;;;;;;5015903;28;20629;-52
2023/01/15 02:29:18;;;;;;;2.75;2.45;;;14.10;42.60;;;;;;5016093;28;20162;-52
2023/01/15 02:31:49;;;;;;;3.83;3.25;;;14.10;42.60;;;;;;5016196;28;20247;-52
2023/01/15 02:34:26;;;;;;;2.90;2.30;;;14.00;42.70;;;;;;5015746;28;20186;-52
2023/01/15 02:37:02;;;;;;;2.85;2.60;;;14.00;42.90;;;;;;5016163;28;20257;-51
2023/01/15 02:39:30;;;;;;;2.85;2.25;;;14.00;43.00;;;;;;5016024;28;20150;-52
2023/01/15 02:42:00;;;;;;;3.45;2.45;;;14.00;43.00;;;;;;5015798;28;20277;-51
2023/01/15 02:44:29;;;;;;;2.95;2.40;;;13.90;43.20;;;;;;5015548;28;20207;-52
2023/01/15 02:46:58;;;;;;;5.40;2.58;;;13.90;43.50;;;;;;5015892;28;20293;-51
2023/01/15 02:49:24;;;;;;;3.45;2.28;;;13.90;43.40;;;;;;5015744;28;20163;-52
2023/01/15 02:52:03;;;;;;;2.30;1.70;;;13.90;43.40;;;;;;5015717;28;20578;-52
2023/01/15 02:54:53;;;;;;;2.33;2.10;;;14.00;43.70;;;;;;5015417;28;20682;-52
2023/01/15 02:57:23;;;;;;;2.47;1.80;;;13.90;43.70;;;;;;5015652;28;20720;-51
2023/01/15 02:59:50;;;;;;;2.20;1.40;;;13.90;44.00;;;;;;5015738;28;20201;-52
2023/01/15 03:02:22;;;;;;;2.47;1.98;;;13.90;44.10;;;;;;5015761;28;20183;-51
2023/01/15 03:05:04;;;;;;;2.47;1.85;;;13.90;44.00;;;;;;5015183;28;20241;-52
2023/01/15 03:07:43;;;;;;;1.77;1.30;;;14.00;44.10;;;;;;5015530;28;20217;-51
2023/01/15 03:10:10;;;;;;;2.28;1.50;;;14.00;44.00;;;;;;5015700;28;20194;-51
2023/01/15 03:13:03;;;;;;;3.03;2.80;;;14.10;44.00;;;;;;5015316;28;20253;-52
2023/01/15 03:18:39;;;;;;;1.60;1.30;;;14.20;44.00;;;;;;5015520;28;20181;-52
2023/01/15 03:21:09;;;;;;;1.70;1.20;;;14.20;43.90;;;;;;5015276;28;20177;-51
2023/01/15 03:23:38;;;;;;;2.30;1.33;;;14.20;43.80;;;;;;5015351;28;20182;-51
2023/01/15 03:26:04;;;;;;;1.42;1.15;;;14.20;43.70;;;;;;5014701;28;20207;-51
2023/01/15 03:28:34;;;;;;;2.03;1.53;;;14.20;43.80;;;;;;5013992;28;20182;-52
2023/01/15 03:31:00;;;;;;;2.33;1.60;;;14.20;43.90;;;;;;5015364;28;20185;-52
2023/01/15 03:33:28;;;;;;;2.10;1.60;;;14.20;43.80;;;;;;5015212;28;20662;-51
2023/01/15 03:35:59;;;;;;;1.67;1.40;;;14.20;43.90;;;;;;5014681;28;20544;-52
2023/01/15 03:38:31;;;;;;;1.60;1.13;;;14.30;44.00;;;;;;5014915;28;20256;-52
2023/01/15 03:41:14;;;;;;;2.53;1.00;;;14.20;44.00;;;;;;5014684;28;20185;-52
2023/01/15 03:43:55;;;;;;;1.60;0.98;;;14.20;44.00;;;;;;5015027;28;20190;-52
2023/01/15 03:46:42;;;;;;;2.30;0.70;;;14.30;44.10;;;;;;5014407;28;20731;-51
2023/01/15 03:49:22;;;;;;;1.05;0.50;;;14.30;44.10;;;;;;5014564;28;20642;-52
2023/01/15 03:51:53;;;;;;;1.05;0.60;;;14.30;44.30;;;;;;5014615;28;20158;-52
2023/01/15 03:54:45;;;;;;;0.90;0.32;;;14.40;44.50;;;;;;5014399;28;20202;-51
2023/01/15 03:57:36;;;;;;;1.05;0.47;;;14.40;44.70;;;;;;5013999;28;20237;-52
2023/01/15 04:00:20;;;;;;;1.75;0.60;;;14.50;44.70;;;;;;5011126;28;20178;-52
2023/01/15 04:02:49;;;;;;;1.10;0.40;;;14.70;44.70;;;;;;5014527;28;20170;-52
2023/01/15 04:05:16;;;;;;;1.23;0.50;;;14.80;44.60;;;;;;5014365;28;20285;-51
2023/01/15 04:07:42;;;;;;;2.67;0.50;;;14.90;44.10;;;;;;5014398;28;20253;-51
2023/01/15 04:10:09;;;;;;;1.92;0.55;;;14.90;43.90;;;;;;5014233;28;20213;-52
2023/01/15 04:12:35;;;;;;;1.20;0.40;;;14.90;43.90;;;;;;5014401;28;20209;-52
2023/01/15 04:15:00;;;;;;;1.33;0.40;;;15.10;43.90;;;;;;5013926;28;20242;-52
2023/01/15 04:17:26;;;;;;;1.10;0.50;;;15.00;43.60;;;;;;5014258;28;20579;-52
2023/01/15 04:19:52;;;;;;;1.10;0.50;;;15.00;43.30;;;;;;5012918;28;20670;-52
2023/01/15 04:22:18;;;;;;;1.30;0.57;;;15.10;43.60;;;;;;5014234;28;20414;-52
2023/01/15 04:24:44;;;;;;;1.20;0.43;;;15.10;43.70;;;;;;5013652;28;20524;-52
2023/01/15 04:27:10;;;;;;;1.00;0.30;;;15.20;43.50;;;;;;5014106;28;20203;-53
2023/01/15 04:29:35;;;;;;;1.10;0.40;;;15.30;43.20;;;;;;5013916;28;20175;-52
2023/01/15 04:32:01;;;;;;;1.53;0.70;;;15.20;43.40;;;;;;5013982;28;20180;-52
2023/01/15 04:34:28;;;;;;;1.10;0.40;;;15.30;43.50;;;;;;5013850;28;20548;-52
2023/01/15 04:36:55;;;;;;;2.22;0.77;;;15.30;43.40;;;;;;5013912;28;20186;-52
2023/01/15 04:39:21;;;;;;;1.00;0.40;;;15.30;43.30;;;;;;5013278;28;20269;-52
2023/01/15 04:44:33;;;;;;;1.20;0.60;;;15.20;43.40;;;;;;5013797;28;20206;-52
2023/01/15 04:46:59;;;;;;;0.90;0.40;;;15.10;43.10;;;;;;5013508;28;20203;-52
2023/01/15 04:49:26;;;;;;;1.50;0.80;;;15.20;43.80;;;;;;5013478;28;20182;-52
2023/01/15 04:51:52;;;;;;;1.73;1.00;;;15.30;43.80;;;;;;5013688;28;20425;-52
2023/01/15 04:54:18;;;;;;;2.43;1.93;;;15.20;43.70;;;;;;5013081;28;20773;-51
2023/01/15 04:56:47;;;;;;;5.90;1.98;;;15.20;43.80;;;;;;5013538;28;20409;-52
2023/01/15 04:59:15;;;;;;;3.60;1.70;;;15.00;43.80;;;;;;5013312;28;20245;-52
2023/01/15 05:01:40;;;;;;;2.03;1.30;;;14.90;44.00;;;;;;5013303;28;20179;-52
2023/01/15 05:04:06;;;;;;;2.53;2.00;;;14.80;44.20;;;;;;5013021;28;20555;-52
2023/01/15 05:06:32;;;;;;;2.13;1.83;;;14.70;44.70;;;;;;5012924;28;20206;-52
2023/01/15 05:08:59;;;;;;;3.10;1.53;;;14.60;44.70;;;;;;5013115;28;20404;-52
2023/01/15 05:11:26;;;;;;;1.50;1.33;;;14.60;45.00;;;;;;5013141;28;20406;-51
2023/01/15 05:13:52;;;;;;;2.42;1.50;;;14.50;45.20;;;;;;5012874;28;20218;-52
2023/01/15 05:16:20;;;;;;;2.27;1.67;;;14.50;45.40;;;;;;5012813;28;20171;-52
2023/01/15 05:18:47;;;;;;;5.78;1.98;;;14.40;45.40;;;;;;5013149;28;20413;-52
2023/01/15 05:21:19;;;;;;;1.95;1.42;;;14.40;45.40;;;;;;5012956;28;20190;-52
2023/01/15 05:23:46;;;;;;;3.42;1.27;;;14.40;45.70;;;;;;5012847;28;20686;-52
2023/01/15 05:26:11;;;;;;;2.45;1.58;;;14.40;45.70;;;;;;5012743;28;20294;-51
2023/01/15 05:28:38;;;;;;;4.03;2.00;;;14.40;45.70;;;;;;5012942;28;20253;-52
2023/01/15 05:31:10;;;;;;;2.10;1.25;;;14.40;45.60;;;;;;5012758;28;20170;-52
2023/01/15 05:33:36;;;;;;;3.78;1.50;;;14.40;45.50;;;;;;5012724;28;20229;-52
2023/01/15 05:36:10;;;;;;;3.15;1.40;;;14.40;45.60;;;;;;5012711;28;20186;-52
2023/01/15 05:38:37;;;;;;;2.55;1.55;;;14.50;45.80;;;;;;5012777;28;20627;-52
2023/01/15 05:43:49;;;;;;;2.65;1.70;;;14.30;46.20;;;;;;5012864;28;20265;-51
2023/01/15 05:46:15;;;;;;;2.57;1.60;;;14.30;46.20;;;;;;5012519;28;20206;-52
2023/01/15 05:48:41;;;;;;;1.63;1.20;;;14.30;46.20;;;;;;5012531;28;20176;-52
2023/01/15 05:51:06;;;;;;;1.43;1.23;;;14.30;46.30;;;;;;5011848;28;20409;-51
2023/01/15 05:53:33;;;;;;;4.40;1.57;;;14.30;46.20;;;;;;5012468;28;20174;-52
2023/01/15 05:56:03;;;;;;;1.70;1.15;;;14.30;46.10;;;;;;5012236;28;20547;-52
2023/01/15 05:58:29;;;;;;;3.25;1.80;;;14.30;46.10;;;;;;5012421;28;20174;-52
2023/01/15 06:00:55;;;;;;;2.10;1.15;;;14.40;46.10;;;;;;5012406;28;20182;-52
2023/01/15 06:03:22;;;;;;;2.17;1.30;;;14.40;45.90;;;;;;5012538;28;20182;-52
2023/01/15 06:05:51;;;;;;;4.72;1.30;;;14.40;45.80;;;;;;5012249;28;20287;-51
2023/01/15 06:08:17;;;;;;;1.45;1.00;;;14.40;45.80;;;;;;5012298;28;20185;-51
2023/01/15 06:10:46;;;;;;;1.53;1.20;;;14.40;45.70;;;;;;5012257;28;20253;-52
2023/01/15 06:13:13;;;;;;;1.33;0.90;;;14.40;45.70;;;;;;5012267;28;20494;-52
2023/01/15 06:15:39;;;;;;;1.80;1.10;;;14.50;45.70;;;;;;5011910;28;20218;-51
2023/01/15 06:18:05;;;;;;;1.65;1.08;;;14.50;45.60;;;;;;5012320;28;20205;-51
2023/01/15 06:20:34;;;;;;;1.80;1.00;;;14.50;45.40;;;;;;5012305;28;20663;-52
2023/01/15 06:22:59;;;;;;;4.25;0.98;;;14.50;45.40;;;;;;5012436;28;20401;-52
2023/01/15 06:25:25;;;;;;;1.20;0.50;;;14.50;45.40;;;;;;5012121;28;20681;-51
2023/01/15 06:27:51;;;;;;;1.70;0.90;;;14.50;44.60;;;;;;5012095;28;20293;-51
2023/01/15 06:30:17;;;;;;;1.13;0.40;;;14.50;45.20;;;;;;5012286;28;20229;-52
2023/01/15 06:32:43;;;;;;;1.43;0.50;;;14.60;44.20;;;;;;5012319;28;20757;-52
2023/01/15 06:35:09;;;;;;;0.90;0.30;;;14.70;44.30;;;;;;5011850;28;20430;-53
2023/01/15 06:37:35;;;;;;;0.90;0.40;;;14.70;44.40;;;;;;5012088;28;20643;-51
2023/01/15 06:40:01;;;;;;;1.00;0.40;;;14.80;46.70;;;;;;5011992;28;20187;-52
2023/01/15 06:47:56;;;;;;;1.10;0.57;;;14.40;49.20;;;;;;5011945;28;20194;-52
2023/01/15 06:50:22;;;;;;;0.90;0.32;;;14.20;49.00;;;;;;5011877;28;20178;-52
2023/01/15 06:52:48;;;;;;;0.90;0.40;;;14.20;47.30;;;;;;5012164;28;20254;-52
2023/01/15 06:55:14;;;;;;;0.90;0.40;;;14.00;46.10;;;;;;5011784;28;20287;-52
2023/01/15 06:57:40;;;;;;;1.07;0.50;;;13.80;45.80;;;;;;5011905;28;20467;-52
2023/01/15 07:00:07;;;;;;;0.90;0.30;;;13.60;45.60;;;;;;5011930;28;20179;-51
2023/01/15 07:02:33;;;;;;;0.90;0.40;;;13.30;45.70;;;;;;5013542;28;20674;-52
2023/01/15 07:04:59;;;;;;;1.40;0.50;;;13.10;45.80;;;;;;5015198;28;20201;-52
2023/01/15 07:07:27;;;;;;;0.93;0.37;;;12.90;46.10;;;;;;5015555;28;20205;-51
2023/01/15 07:09:53;;;;;;;1.10;0.50;;;12.80;46.40;;;;;;5015567;28;20284;-52
2023/01/15 07:12:19;;;;;;;1.27;0.50;;;12.60;46.70;;;;;;5015364;28;20677;-51
2023/01/15 07:14:45;;;;;;;1.13;0.50;;;12.50;46.90;;;;;;5014956;28;20269;-51
2023/01/15 07:17:11;;;;;;;1.00;0.40;;;12.50;46.80;;;;;;5015296;28;20209;-51
2023/01/15 07:19:37;;;;;;;1.20;0.47;;;12.40;46.80;;;;;;5015164;28;20209;-51
2023/01/15 07:22:04;;;;;;;1.70;0.40;;;12.40;46.80;;;;;;5015340;28;20417;-51
2023/01/15 07:24:30;;;;;;;1.80;0.73;;;12.40;46.90;;;;;;5014904;28;20524;-51
2023/01/15 07:26:56;;;;;;;2.90;0.60;;;12.30;46.70;;;;;;5015153;28;20293;-51
2023/01/15 07:29:22;;;;;;;1.10;0.40;;;12.20;46.60;;;;;;5015028;28;20417;-52
2023/01/15 07:31:49;;;;;;;0.90;0.30;;;12.20;46.70;;;;;;5015010;28;20171;-52
2023/01/15 07:34:14;;;;;;;1.88;0.60;;;12.10;46.80;;;;;;5014993;28;20197;-51
2023/01/15 07:36:40;;;;;;;4.40;0.63;;;12.10;46.80;;;;;;5014987;28;20693;-51
2023/01/15 07:39:07;;;;;;;1.27;0.57;;;12.00;46.80;;;;;;5014847;28;20509;-51
2023/01/15 07:49:48;;;;;;;1.10;0.50;;;11.90;47.10;;;;;;5014907;28;20720;-51
2023/01/15 07:52:19;;;;;;;1.00;0.40;;;11.90;47.20;;;;;;5014566;28;20174;-51
2023/01/15 07:54:46;;;;;;;1.52;0.63;;;11.90;47.10;;;;;;5014248;28;20199;-52
2023/01/15 07:57:15;;;;;;;1.00;0.40;;;11.90;47.10;;;;;;5014504;28;20189;-51
2023/01/15 07:59:41;;;;;;;1.85;0.60;;;11.90;47.00;;;;;;5014692;28;20189;-51
2023/01/15 08:02:07;;;;;;;2.17;0.53;;;11.90;47.10;;;;;;5014441;28;20516;-51
2023/01/15 08:04:32;;;;;;;1.07;0.57;;;11.90;47.20;;;;;;5014233;28;20440;-51
2023/01/15 08:07:00;;;;;;;1.20;0.60;;;11.90;47.30;;;;;;5014485;28;20293;-51
2023/01/15 08:09:26;;;;;;;1.48;0.80;;;11.90;47.40;;;;;;5014182;28;20175;-51
2023/01/15 08:17:20;;;;;;;4.35;1.50;;;11.60;47.40;;;;;;5014475;28;20210;-51
2023/01/15 08:19:46;;;;;;;1.90;0.93;;;11.50;48.10;;;;;;5014310;28;20190;-51
2023/01/15 08:22:12;;;;;;;2.13;1.13;;;11.40;48.00;;;;;;5013963;28;20189;-51
2023/01/15 08:24:37;;;;;;;2.37;1.20;;;11.40;47.90;;;;;;5013749;28;20201;-51
2023/01/15 08:27:03;;;;;;;1.70;1.00;;;11.40;48.10;;;;;;5014014;28;20209;-51
2023/01/15 08:29:29;;;;;;;2.80;1.20;;;11.30;48.20;;;;;;5014052;28;20631;-51
2023/01/15 08:31:55;;;;;;;2.13;0.80;;;11.30;48.50;;;;;;5013945;28;20409;-51
2023/01/15 08:34:21;;;;;;;1.13;0.70;;;11.20;48.20;;;;;;5013502;28;20684;-51
2023/01/15 08:36:48;;;;;;;1.43;0.90;;;11.10;48.40;;;;;;5013983;28;20193;-51
2023/01/15 08:39:14;;;;;;;1.63;0.90;;;11.10;48.40;;;;;;5014081;28;20436;-51
2023/01/15 08:41:40;;;;;;;1.73;0.80;;;11.10;48.40;;;;;;5013888;28;20816;-51
2023/01/15 08:44:06;;;;;;;1.97;0.93;;;11.20;48.40;;;;;;5013497;28;20202;-51
2023/01/15 08:46:32;;;;;;;1.50;0.73;;;11.20;48.20;;;;;;5013427;28;20205;-51
2023/01/15 08:48:57;;;;;;;1.20;0.80;;;11.30;48.30;;;;;;5013745;28;20575;-51
2023/01/15 08:51:23;;;;;;;1.30;0.83;;;11.30;48.10;;;;;;5013720;28;20264;-51
2023/01/15 08:53:49;;;;;;;2.37;1.33;;;11.40;48.00;;;;;;5013580;28;20649;-52
2023/01/15 08:56:16;;;;;;;2.70;0.93;;;11.40;48.00;;;;;;5013312;28;20224;-51
2023/01/15 08:58:43;;;;;;;2.47;0.93;;;11.50;48.10;;;;;;5013402;28;20733;-51
2023/01/15 09:01:11;;;;;;;1.50;0.90;;;11.50;48.20;;;;;;5013623;28;20188;-51
2023/01/15 09:03:37;;;;;;;2.85;1.08;;;11.40;47.80;;;;;;5013027;28;20188;-51
2023/01/15 09:06:04;;;;;;;2.38;0.90;;;11.30;48.00;;;;;;5012928;28;20211;-51
2023/01/15 09:08:30;;;;;;;2.70;1.27;;;11.20;48.10;;;;;;5013495;28;20236;-52
2023/01/15 09:11:01;;;;;;;2.45;1.30;;;11.20;48.10;;;;;;5013148;28;20167;-51
2023/01/15 09:13:28;;;;;;;5.78;1.75;;;11.20;48.10;;;;;;5013043;28;20249;-52
2023/01/15 09:16:01;;;;;;;2.92;1.75;;;11.30;48.40;;;;;;5012859;28;20328;-51
2023/01/15 09:18:27;;;;;;;2.60;2.30;;;11.30;49.10;;;;;;5013024;28;20158;-52
2023/01/15 09:20:53;;;;;;;6.05;2.70;;;11.40;48.40;;;;;;5013018;28;20178;-51
2023/01/15 09:23:19;;;;;;;3.70;1.92;;;11.40;48.20;;;;;;5012949;28;20174;-51
2023/01/15 09:25:56;;;;;;;3.67;2.07;;;11.40;48.00;;;;;;5012447;28;20194;-51
2023/01/15 09:28:22;;;;;;;2.85;1.42;;;11.40;48.10;;;;;;5012941;28;20166;-51
2023/01/15 09:30:48;;;;;;;2.13;1.48;;;11.40;48.20;;;;;;5012719;28;20308;-51
2023/01/15 09:33:17;;;;;;;3.22;1.90;;;11.30;48.30;;;;;;5012677;28;20263;-51
2023/01/15 09:35:43;;;;;;;3.58;1.90;;;11.30;48.10;;;;;;5012442;28;20735;-51
2023/01/15 09:38:13;;;;;;;3.43;1.97;;;11.30;48.30;;;;;;5012685;28;20181;-51
2023/01/15 09:40:51;;;;;;;2.95;1.33;;;11.30;48.50;;;;;;5012883;28;20406;-50
2023/01/15 09:43:25;;;;;;;2.38;1.10;;;11.30;48.40;;;;;;5012580;28;20205;-51
2023/01/15 09:45:58;;;;;;;2.22;1.10;;;11.20;48.90;;;;;;5012173;28;20694;-51
2023/01/15 09:48:48;;;;;;;2.35;1.55;;;11.10;48.80;;;;;;5012504;28;20530;-51
2023/01/15 09:51:48;;;;;;;2.95;1.95;;;11.10;48.60;;;;;;5012500;28;20213;-51
2023/01/15 09:54:30;;;;;;;5.07;2.13;;;11.00;48.60;;;;;;5012302;28;20269;-51
2023/01/15 09:56:56;;;;;;;2.35;1.60;;;11.10;48.90;;;;;;5012564;28;20182;-50
2023/01/15 09:59:35;;;;;;;1.90;1.37;;;11.10;48.80;;;;;;5012434;28;20590;-51
2023/01/15 10:02:16;;;;;;;2.08;1.30;;;11.10;48.50;;;;;;5012239;28;20417;-51
2023/01/15 10:04:47;;;;;;;2.55;1.58;;;11.00;48.50;;;;;;5012081;28;20233;-51
2023/01/15 10:07:36;;;;;;;2.50;1.75;;;11.10;48.80;;;;;;5012554;28;20194;-51
2023/01/15 10:10:08;;;;;;;2.60;1.05;;;11.10;48.70;;;;;;5012612;28;20221;-51
2023/01/15 10:12:42;;;;;;;1.30;0.93;;;11.00;48.20;;;;;;5033767;22;20570;-49
2023/01/15 10:15:35;;;;;;;1.38;0.90;;;11.00;48.30;;;;;;5031407;28;20561;-48
2023/01/15 10:18:02;;;;;;;2.22;1.30;;;9.90;47.90;;;;;;5031970;28;20185;-49
2023/01/15 10:20:46;;;;;;;2.10;1.25;;;11.00;48.50;;;;;;5031923;28;20174;-49
2023/01/15 10:23:37;;;;;;;4.63;1.40;;;11.00;48.40;;;;;;5031832;28;20196;-49
2023/01/15 10:26:39;;;;;;;2.08;1.35;;;11.10;48.40;;;;;;5031482;28;20661;-49
2023/01/15 10:29:16;;;;;;;2.08;1.10;;;11.20;48.20;;;;;;5031903;28;20524;-49
2023/01/15 10:32:01;;;;;;;1.70;1.00;;;11.20;48.10;;;;;;5031839;28;20246;-49
2023/01/15 10:34:27;;;;;;;2.85;1.75;;;11.30;48.20;;;;;;5031569;28;20532;-49
2023/01/15 10:37:14;;;;;;;6.13;1.23;;;11.20;47.90;;;;;;5032521;28;20173;-49
2023/01/15 10:39:48;;;;;;;3.95;1.50;;;11.30;48.50;;;;;;5035810;28;20251;-49
2023/01/15 10:42:46;;;;;;;1.20;0.90;;;11.30;47.80;;;;;;5035765;28;20541;-51
2023/01/15 10:45:29;;;;;;;3.58;1.58;;;11.30;47.40;;;;;;5035522;28;20154;-51
2023/01/15 10:48:28;;;;;;;1.33;0.80;;;11.20;47.10;;;;;;5035598;28;20189;-52
2023/01/15 10:50:55;;;;;;;1.50;0.80;;;11.10;46.60;;;;;;5028136;28;20184;-52
2023/01/15 10:53:35;;;;;;;1.75;0.95;;;10.90;47.50;;;;;;5035390;28;20668;-52
2023/01/15 10:56:39;;;;;;;3.50;2.38;;;11.00;46.70;;;;;;5035258;28;20165;-49
2023/01/15 10:59:17;;;;;;;1.00;0.60;;;10.80;46.70;;;;;;5034224;28;20205;-49
2023/01/15 11:01:44;;;;;;;1.65;0.75;;;10.70;46.20;;;;;;5035251;28;20267;-49
2023/01/15 11:04:12;;;;;;;1.15;0.40;;;10.50;44.20;;;;;;5035251;28;20260;-49
2023/01/15 11:06:39;;;;;;;1.13;0.55;;;10.50;44.70;;;;;;5035099;28;20232;-52
2023/01/15 11:09:06;;;;;;;1.48;0.80;;;10.50;43.70;;;;;;5035238;28;20181;-51
2023/01/15 11:20:35;;;;;;;1.70;1.00;;;10.90;44.30;;;;;;5034959;28;20240;-49
2023/01/15 11:23:27;;;;;;;2.17;0.68;;;11.00;44.30;;;;;;5034921;28;20195;-49
2023/01/15 11:25:59;;;;;;;1.23;0.65;;;11.00;43.00;;;;;;5033488;28;20207;-49
2023/01/15 11:28:39;;;;;;;2.67;0.82;;;10.90;43.40;;;;;;5034812;28;20255;-49
2023/01/15 11:31:08;;;;;;;1.50;0.65;;;11.00;43.70;;;;;;5035098;28;20169;-50
2023/01/15 11:33:34;;;;;;;1.10;0.50;;;10.90;42.50;;;;;;5034718;28;20193;-49
2023/01/15 11:36:06;;;;;;;1.17;0.65;;;10.80;42.60;;;;;;5034483;28;20251;-51
2023/01/15 11:38:52;;;;;;;1.88;0.93;;;10.70;42.10;;;;;;5034723;28;20162;-49
2023/01/15 11:41:20;;;;;;;2.67;0.80;;;10.80;43.50;;;;;;5034509;28;20200;-49
2023/01/15 11:52:16;;;;;;;2.92;1.27;;;10.90;42.60;;;;;;5034341;28;20228;-50
2023/01/15 11:54:47;;;;;;;2.33;0.60;;;10.90;43.10;;;;;;5034205;28;20166;-49
2023/01/15 11:57:24;;;;;;;1.55;1.05;;;10.90;43.30;;;;;;5034331;28;20189;-50
2023/01/15 11:59:50;;;;;;;2.35;1.25;;;11.00;42.20;;;;;;5034237;28;20678;-50
2023/01/15 12:02:42;;;;;;;1.45;0.60;;;10.90;41.10;;;;;;5034080;28;20194;-50
2023/01/15 12:05:16;;;;;;;1.35;0.73;;;10.90;41.90;;;;;;5034054;28;20527;-49
2023/01/15 12:07:43;;;;;;;2.03;0.85;;;10.90;42.40;;;;;;5032905;28;20725;-49
2023/01/15 12:11:06;;;;;;;2.40;0.85;;;11.00;42.90;;;;;;5034137;28;20575;-49
2023/01/15 12:13:35;;;;;;;2.40;0.85;;;11.20;42.40;;;;;;5036708;28;20216;-49
2023/01/15 12:16:13;;;;;;;1.38;0.77;;;11.20;41.90;;;;;;5033774;28;20197;-50
2023/01/15 12:18:52;;;;;;;1.15;0.60;;;11.30;42.20;;;;;;5033924;28;20166;-49
2023/01/15 12:21:45;;;;;;;1.80;1.00;;;11.40;42.30;;;;;;5033842;28;20179;-49
2023/01/15 12:24:35;;;;;;;1.63;0.95;;;11.50;42.00;;;;;;5033772;28;20157;-49
2023/01/15 12:27:29;;;;;;;1.38;0.60;;;11.50;42.00;;;;;;5033759;28;20177;-50
2023/01/15 12:30:22;;;;;;;2.67;0.98;;;11.60;41.80;;;;;;5033723;28;20166;-50
2023/01/15 12:33:12;;;;;;;1.60;0.73;;;11.60;41.10;;;;;;5033686;28;20260;-49
2023/01/15 12:35:44;;;;;;;2.83;0.85;;;11.60;41.10;;;;;;5033543;28;20178;-50
2023/01/15 12:38:25;;;;;;;1.75;1.05;;;11.60;40.60;;;;;;5033538;28;20170;-49
2023/01/15 12:40:59;;;;;;;1.00;0.70;;;11.60;41.10;;;;;;5033587;28;20188;-49
2023/01/15 12:46:17;;;;;;;1.58;0.63;;;11.60;40.60;;;;;;5033170;28;20684;-49
2023/01/15 12:48:55;;;;;;;1.42;0.70;;;11.70;39.80;;;;;;5033368;28;20172;-50
2023/01/15 12:51:44;;;;;;;1.70;1.05;;;11.90;40.10;;;;;;5033346;28;20283;-49
2023/01/15 12:54:18;;;;;;;1.40;0.77;;;12.10;39.00;;;;;;5033131;28;20237;-50
2023/01/15 12:56:49;;;;;;;2.15;0.90;;;12.10;39.50;;;;;;5033191;28;20768;-50
2023/01/15 12:59:27;;;;;;;1.58;0.90;;;12.00;38.80;;;;;;5033115;28;20161;-51
2023/01/15 13:02:03;;;;;;;2.92;0.98;;;12.00;39.40;;;;;;5033130;28;20221;-50
2023/01/15 13:04:48;;;;;;;1.98;1.00;;;12.00;39.10;;;;;;5032845;28;20165;-50
2023/01/15 13:07:26;;;;;;;2.45;0.70;;;12.00;39.80;;;;;;5032970;28;20193;-50
2023/01/15 13:10:06;;;;;;;2.08;1.20;;;11.90;39.10;;;;;;5033014;28;20157;-50
2023/01/15 13:12:32;;;;;;;2.95;1.10;;;11.70;39.10;;;;;;5032750;28;20243;-50
2023/01/15 13:15:00;;;;;;;1.90;0.60;;;11.70;40.10;;;;;;5032550;28;20540;-50
2023/01/15 13:17:53;;;;;;;1.30;0.55;;;11.60;39.50;;;;;;5032884;28;20174;-50
2023/01/15 13:20:34;;;;;;;2.92;0.95;;;11.50;40.10;;;;;;5032720;28;20180;-50
2023/01/15 13:23:22;;;;;;;1.40;0.60;;;11.50;40.20;;;;;;5032626;28;20198;-50
2023/01/15 13:25:48;;;;;;;1.27;0.82;;;11.60;40.20;;;;;;5032550;28;20181;-50
2023/01/15 13:28:25;;;;;;;1.33;0.70;;;11.70;40.30;;;;;;5032532;28;20271;-50
2023/01/15 13:31:28;;;;;;;1.80;0.90;;;11.80;40.20;;;;;;5032578;28;20664;-50
2023/01/15 13:33:59;;;;;;;5.40;4.55;;;11.90;40.00;;;;;;5032491;28;20633;-51
2023/01/15 13:36:41;;;;;;;2.60;1.08;;;11.90;40.20;;;;;;5032303;28;20199;-50
2023/01/15 13:39:21;;;;;;;3.28;2.08;;;11.90;38.90;;;;;;5032470;28;20241;-50
2023/01/15 13:44:38;;;;;;;1.10;0.55;;;11.70;38.90;;;;;;5032198;28;20181;-50
2023/01/15 13:47:10;;;;;;;1.38;0.70;;;11.60;38.00;;;;;;5032280;28;20211;-50
2023/01/15 13:50:04;;;;;;;1.80;0.65;;;11.40;39.00;;;;;;5032387;28;20154;-50
2023/01/15 13:52:35;;;;;;;1.20;0.90;;;11.50;38.40;;;;;;5029781;28;20688;-50
2023/01/15 13:55:20;;;;;;;1.00;0.50;;;11.60;38.60;;;;;;5032031;28;20252;-50
2023/01/15 13:57:47;;;;;;;5.25;0.93;;;11.60;38.30;;;;;;5032197;28;20199;-50
2023/01/15 14:00:30;;;;;;;1.10;0.65;;;11.60;37.60;;;;;;5032145;28;20217;-50
2023/01/15 14:02:59;;;;;;;1.00;0.47;;;11.60;38.20;;;;;;5032077;28;20196;-50
2023/01/15 14:05:33;;;;;;;1.70;0.88;;;11.60;37.80;;;;;;5031806;28;20197;-51
2023/01/15 14:08:01;;;;;;;1.55;0.95;;;11.50;37.40;;;;;;5031961;28;20181;-51